Time;durP1;ratioP1;P1;durP2;ratioP2;P2;SDS_P1;SDS_P2;PMS_P1;PMS_P2;Temp;Humidity;BMP_temperature;BMP_pressure;BME280_temperature;BME280_humidity;BME280_pressure;Samples;Min_cycle;Max_cycle;Signal;HPM_P1;HPM_P2
2022/11/03 00:00:55;;;;;;;9.10;3.30;;;;;;;6.97;nan;100914.44;5030301;28;20038;-67
2022/11/03 00:03:21;;;;;;;6.38;2.83;;;;;;;6.97;nan;100910.97;5030063;28;20229;-66
2022/11/03 00:06:04;;;;;;;6.63;3.05;;;;;;;6.92;nan;100913.97;5029968;28;20034;-66
2022/11/03 00:08:30;;;;;;;7.28;3.10;;;;;;;7.03;nan;100907.84;5028759;28;20474;-67
2022/11/03 00:11:22;;;;;;;6.03;3.08;;;;;;;6.93;nan;100913.00;5029127;28;20058;-66
2022/11/03 00:13:47;;;;;;;;;;;;;;;6.88;nan;100922.19;5025820;28;20543;-66
2022/11/03 00:16:12;;;;;;;;;;;;;;;6.84;nan;100923.38;5032079;28;19917;-66
2022/11/03 00:18:38;;;;;;;6.00;2.83;;;;;;;6.80;nan;100928.06;5032983;28;20194;-67
2022/11/03 00:21:06;;;;;;;5.32;2.83;;;;;;;6.76;nan;100922.16;5031614;28;20604;-66
2022/11/03 00:23:34;;;;;;;7.28;3.10;;;;;;;6.85;nan;100907.50;5023245;28;20484;-66
2022/11/03 00:26:12;;;;;;;6.03;3.40;;;;;;;6.93;nan;100912.16;5033441;28;20411;-66
2022/11/03 00:28:38;;;;;;;;;;;;;;;6.91;nan;100904.41;5032619;28;20033;-66
2022/11/03 00:31:12;;;;;;;10.18;4.00;;;;;;;6.95;nan;100897.94;5031634;28;19971;-66
2022/11/03 00:33:38;;;;;;;;;;;;;;;6.97;nan;100903.09;5027846;28;20071;-66
2022/11/03 00:36:05;;;;;;;7.72;4.05;;;;;;;6.96;nan;100901.41;5029023;28;19917;-66
2022/11/03 00:38:31;;;;;;;7.82;3.80;;;;;;;7.06;nan;100893.66;5028737;28;20895;-66
2022/11/03 00:40:59;;;;;;;7.20;3.63;;;;;;;7.01;nan;100884.31;5029747;28;20033;-66
2022/11/03 00:43:25;;;;;;;7.25;3.38;;;;;;;7.01;nan;100884.31;5029350;28;20117;-66
2022/11/03 00:45:52;;;;;;;6.20;3.08;;;;;;;6.96;nan;100877.72;5031841;28;20123;-66
2022/11/03 00:48:29;;;;;;;5.22;2.90;;;;;;;6.89;nan;100869.50;5029942;28;20033;-66
2022/11/03 00:51:11;;;;;;;5.95;3.05;;;;;;;6.80;nan;100854.47;5029983;28;20024;-67
2022/11/03 00:53:49;;;;;;;6.43;2.83;;;;;;;6.74;nan;100852.28;5039415;28;20033;-66
2022/11/03 00:56:17;;;;;;;6.82;3.10;;;;;;;6.69;nan;100859.69;5045823;28;20033;-66
2022/11/03 00:58:43;;;;;;;11.10;3.92;;;;;;;6.65;nan;100853.84;5035977;28;20039;-66
2022/11/03 01:01:14;;;;;;;5.78;3.03;;;;;;;6.61;nan;100857.66;5029365;28;20497;-66
2022/11/03 01:06:48;;;;;;;7.65;3.72;;;;;;;6.54;nan;100853.84;5019250;28;20029;-66
2022/11/03 01:09:10;;;;;;;;;;;;;;;6.42;nan;100860.03;5031965;28;20400;-66
2022/11/03 01:11:45;;;;;;;9.17;3.70;;;;;;;6.37;nan;100866.47;5030835;28;19913;-66
2022/11/03 01:14:14;;;;;;;7.72;3.58;;;;;;;6.34;nan;100852.72;5029658;28;20052;-66
2022/11/03 01:16:40;;;;;;;4.38;2.65;;;;;;;6.31;nan;100856.41;5028587;28;20073;-67
2022/11/03 01:19:06;;;;;;;9.95;3.63;;;;;;;6.32;nan;100854.66;5028374;28;20037;-66
2022/11/03 01:21:31;;;;;;;7.88;3.85;;;;;;;6.34;nan;100856.19;5028993;28;20416;-66
2022/11/03 01:23:59;;;;;;;10.13;3.88;;;;;;;6.36;nan;100853.44;5036206;28;20508;-66
2022/11/03 01:26:25;;;;;;;8.60;4.00;;;;;;;6.37;nan;100837.56;5027856;28;20132;-66
2022/11/03 01:28:50;;;;;;;9.77;3.70;;;;;;;6.39;nan;100834.84;5027910;28;20117;-66
2022/11/03 01:31:18;;;;;;;8.17;4.07;;;;;;;6.51;nan;100828.63;5025728;28;20407;-66
2022/11/03 01:33:44;;;;;;;6.25;3.38;;;;;;;6.46;nan;100827.31;5028324;28;20429;-66
2022/11/03 01:36:11;;;;;;;6.07;3.50;;;;;;;6.42;nan;100834.59;5027312;28;20033;-66
2022/11/03 01:38:36;;;;;;;5.65;2.88;;;;;;;6.37;nan;100832.31;5025364;28;20040;-66
2022/11/03 01:41:05;;;;;;;6.78;2.90;;;;;;;6.36;nan;100840.31;5028012;28;20026;-67
2022/11/03 01:43:33;;;;;;;6.40;3.22;;;;;;;6.30;nan;100835.53;5027727;28;20037;-66
2022/11/03 01:46:11;;;;;;;5.78;2.85;;;;;;;6.28;nan;100829.56;5028430;28;20045;-66
2022/11/03 01:48:41;;;;;;;5.07;2.65;;;;;;;6.26;nan;100828.84;5020718;28;20029;-66
2022/11/03 01:51:10;;;;;;;4.65;2.60;;;;;;;6.24;nan;100828.09;5026523;28;20033;-66
2022/11/03 01:53:40;;;;;;;4.03;2.33;;;;;;;6.20;nan;100814.38;5028015;28;20084;-66
2022/11/03 01:56:06;;;;;;;6.88;2.90;;;;;;;6.15;nan;100819.16;5020521;28;20045;-66
2022/11/03 01:58:34;;;;;;;;;;;;;;;6.11;nan;100815.91;5027462;28;20095;-66
2022/11/03 02:01:01;;;;;;;10.00;3.92;;;;;;;6.10;nan;100819.50;5027149;28;20377;-66
2022/11/03 02:03:31;;;;;;;8.43;3.75;;;;;;;6.08;nan;100820.56;5027222;28;20477;-67
2022/11/03 02:05:57;;;;;;;5.87;3.00;;;;;;;6.08;nan;100818.78;5010396;28;20033;-66
2022/11/03 02:08:59;;;;;;;5.63;3.10;;;;;;;6.07;nan;100811.84;5031246;28;20041;-66
2022/11/03 02:14:13;;;;;;;8.77;4.57;;;;;;;6.13;nan;100793.00;5028355;28;20060;-67
2022/11/03 02:16:40;;;;;;;7.43;3.28;;;;;;;6.14;nan;100799.91;5020597;28;20031;-66
2022/11/03 02:19:17;;;;;;;7.93;3.53;;;;;;;6.15;nan;100795.53;5027720;28;20095;-67
2022/11/03 02:22:24;;;;;;;6.43;2.75;;;;;;;6.14;nan;100791.22;5026671;28;20038;-67
2022/11/03 02:25:05;;;;;;;4.80;3.08;;;;;;;6.11;nan;100784.41;5027201;28;20041;-67
2022/11/03 02:27:30;;;;;;;3.60;2.47;;;;;;;6.11;nan;100778.31;5027704;28;20041;-67
2022/11/03 02:29:57;;;;;;;8.30;3.10;;;;;;;6.11;nan;100779.16;5028527;28;20040;-67
2022/11/03 02:32:27;;;;;;;6.00;3.10;;;;;;;6.11;nan;100779.16;5025315;28;20030;-66
2022/11/03 02:35:01;;;;;;;10.05;4.45;;;;;;;6.12;nan;100767.69;5027216;28;20279;-67
2022/11/03 02:37:30;;;;;;;8.10;3.55;;;;;;;6.12;nan;100759.81;5028082;28;20094;-67
2022/11/03 02:40:03;;;;;;;9.63;3.60;;;;;;;6.12;nan;100754.56;5027277;28;20331;-66
2022/11/03 02:42:30;;;;;;;7.97;3.53;;;;;;;6.12;nan;100744.06;5024987;28;20033;-66
2022/11/03 02:44:58;;;;;;;8.43;3.85;;;;;;;6.12;nan;100749.31;5025067;28;20078;-67
2022/11/03 02:47:27;;;;;;;8.32;3.83;;;;;;;6.12;nan;100744.06;5027245;28;20053;-67
2022/11/03 02:49:53;;;;;;;8.35;3.60;;;;;;;6.10;nan;100738.13;5027976;28;20032;-66
2022/11/03 02:52:36;;;;;;;7.35;3.15;;;;;;;6.07;nan;100743.59;5024871;28;20510;-66
2022/11/03 02:55:34;;;;;;;5.53;3.05;;;;;;;6.03;nan;100731.66;5028520;28;20041;-66
2022/11/03 02:58:18;;;;;;;4.47;2.40;;;;;;;6.00;nan;100724.00;5022133;28;20122;-66
2022/11/03 03:00:57;;;;;;;3.95;2.45;;;;;;;5.97;nan;100719.00;5024352;28;20038;-66
2022/11/03 03:03:27;;;;;;;7.63;3.92;;;;;;;5.99;nan;100711.00;5027841;28;20545;-67
2022/11/03 03:05:59;;;;;;;6.60;3.55;;;;;;;6.00;nan;100702.16;5026992;28;20087;-66
2022/11/03 03:08:25;;;;;;;4.82;2.95;;;;;;;5.99;nan;100700.50;5028034;28;20040;-66
2022/11/03 03:10:52;;;;;;;4.93;2.70;;;;;;;5.97;nan;100691.91;5028023;28;20087;-66
2022/11/03 03:13:21;;;;;;;6.13;2.50;;;;;;;5.93;nan;100697.38;5028106;28;20052;-66
2022/11/03 03:15:56;;;;;;;5.55;2.45;;;;;;;5.89;nan;100693.31;5021815;28;20037;-66
2022/11/03 03:18:36;;;;;;;4.45;2.40;;;;;;;5.87;nan;100687.34;5028246;28;20453;-67
2022/11/03 03:21:10;;;;;;;3.88;2.20;;;;;;;5.84;nan;100687.59;5028863;28;20187;-67
2022/11/03 03:23:48;;;;;;;6.13;2.90;;;;;;;5.82;nan;100689.47;5037794;28;20044;-67
2022/11/03 03:26:31;;;;;;;6.07;3.40;;;;;;;5.79;nan;100692.31;5030183;28;20034;-67
2022/11/03 03:29:14;;;;;;;6.60;3.17;;;;;;;5.76;nan;100687.31;5028953;28;20025;-66
2022/11/03 03:31:46;;;;;;;5.72;3.50;;;;;;;5.73;nan;100685.75;5025923;28;20060;-66
2022/11/03 03:34:14;;;;;;;6.07;3.08;;;;;;;5.74;nan;100676.09;5027130;28;20076;-66
2022/11/03 03:36:41;;;;;;;7.28;3.40;;;;;;;5.75;nan;100676.00;5025919;28;20051;-67
2022/11/03 03:39:09;;;;;;;8.48;3.75;;;;;;;5.79;nan;100673.13;5024787;28;20037;-67
2022/11/03 03:41:36;;;;;;;7.95;3.95;;;;;;;5.84;nan;100666.59;5026635;28;20169;-66
2022/11/03 03:44:07;;;;;;;8.00;3.42;;;;;;;5.86;nan;100662.03;5026435;28;20116;-67
2022/11/03 03:46:37;;;;;;;5.90;3.10;;;;;;;5.88;nan;100656.69;5003481;28;20040;-66
2022/11/03 03:49:04;;;;;;;6.15;3.10;;;;;;;5.87;nan;100655.84;5025744;28;20120;-66
2022/11/03 03:51:31;;;;;;;4.55;2.60;;;;;;;5.86;nan;100659.41;5022798;28;20470;-66
2022/11/03 03:53:56;;;;;;;4.38;2.45;;;;;;;5.85;nan;100657.75;5026572;28;20128;-66
2022/11/03 03:56:34;;;;;;;5.03;2.13;;;;;;;5.83;nan;100651.78;5024746;28;20116;-66
2022/11/03 03:59:00;;;;;;;3.57;1.70;;;;;;;5.79;nan;100634.59;5020872;28;20451;-67
2022/11/03 04:01:25;;;;;;;4.35;2.20;;;;;;;5.78;nan;100645.22;5025977;28;20072;-67
2022/11/03 04:03:50;;;;;;;7.43;2.78;;;;;;;5.75;nan;100649.75;5026187;28;20049;-67
2022/11/03 04:06:16;;;;;;;4.45;2.40;;;;;;;5.74;nan;100649.84;5023253;28;20494;-67
2022/11/03 04:08:41;;;;;;;4.32;2.50;;;;;;;5.73;nan;100648.19;5026611;28;20037;-67
2022/11/03 04:22:16;;;;;;;5.57;2.60;;;;;;;5.78;nan;100621.59;5024072;28;20044;-66
2022/11/03 04:24:44;;;;;;;3.53;2.20;;;;;;;5.78;nan;100629.47;5030119;28;20557;-67
2022/11/03 04:27:25;;;;;;;5.25;2.50;;;;;;;5.77;nan;100623.41;5025170;28;20072;-66
2022/11/03 04:29:51;;;;;;;4.63;2.53;;;;;;;5.77;nan;100617.31;5026637;28;20044;-66
2022/11/03 04:32:17;;;;;;;4.15;2.20;;;;;;;5.77;nan;100620.78;5024884;28;20065;-66
2022/11/03 04:34:45;;;;;;;4.25;2.38;;;;;;;5.77;nan;100619.91;5025077;28;20461;-67
2022/11/03 04:37:12;;;;;;;6.32;2.33;;;;;;;5.74;nan;100627.09;5024100;28;20037;-67
2022/11/03 04:39:38;;;;;;;6.75;3.05;;;;;;;5.71;nan;100619.44;5026090;28;20543;-66
2022/11/03 04:42:23;;;;;;;4.97;2.67;;;;;;;5.71;nan;100614.19;5024279;28;20042;-67
2022/11/03 04:44:49;;;;;;;5.40;2.60;;;;;;;5.73;nan;100614.91;5023152;28;20038;-66
2022/11/03 04:47:16;;;;;;;7.15;3.28;;;;;;;5.81;nan;100609.06;5023820;28;20134;-66
2022/11/03 04:49:43;;;;;;;7.43;3.40;;;;;;;5.85;nan;100610.50;5024890;28;20465;-67
2022/11/03 04:52:14;;;;;;;9.07;3.70;;;;;;;5.88;nan;100610.25;5024294;28;20193;-67
2022/11/03 04:54:40;;;;;;;;;;;;;;;5.88;nan;100605.00;5026845;28;20301;-66
2022/11/03 04:57:12;;;;;;;6.70;2.88;;;;;;;5.91;nan;100602.19;5024635;28;20373;-67
2022/11/03 04:59:37;;;;;;;7.25;3.00;;;;;;;5.92;nan;100593.34;5026247;28;20048;-66
2022/11/03 05:02:08;;;;;;;8.68;3.40;;;;;;;5.91;nan;100590.81;5028855;28;20041;-66
2022/11/03 05:04:33;;;;;;;5.47;2.83;;;;;;;5.87;nan;100589.41;5030573;28;20071;-66
2022/11/03 05:06:59;;;;;;;4.65;2.45;;;;;;;5.83;nan;100591.44;5030259;28;20100;-65
2022/11/03 05:09:29;;;;;;;5.32;2.47;;;;;;;5.81;nan;100582.00;5030571;28;20030;-66
2022/11/03 05:11:54;;;;;;;4.90;2.20;;;;;;;5.78;nan;100587.50;5028609;28;20017;-66
2022/11/03 05:14:29;;;;;;;4.50;2.70;;;;;;;5.74;nan;100579.03;5029818;28;20038;-65
2022/11/03 05:16:54;;;;;;;5.30;2.92;;;;;;;5.69;nan;100581.16;5030042;28;20068;-66
2022/11/03 05:19:26;;;;;;;5.32;2.67;;;;;;;5.65;nan;100575.34;5030510;28;20053;-66
2022/11/03 05:21:51;;;;;;;;;;;;;;;5.59;nan;100581.03;5030315;28;20294;-66
2022/11/03 05:24:19;;;;;;;6.28;2.65;;;;;;;5.57;nan;100569.00;5043881;28;19942;-66
2022/11/03 05:26:45;;;;;;;5.53;2.80;;;;;;;5.53;nan;100566.63;5030148;28;20033;-66
2022/11/03 05:29:24;;;;;;;5.72;2.55;;;;;;;5.51;nan;100558.03;5029237;28;20113;-66
2022/11/03 05:31:52;;;;;;;5.63;2.50;;;;;;;5.48;nan;100555.66;5027730;28;20041;-66
2022/11/03 05:34:29;;;;;;;5.90;2.60;;;;;;;5.48;nan;100553.03;5027859;28;20164;-66
2022/11/03 05:37:23;;;;;;;5.32;3.10;;;;;;;5.49;nan;100541.59;5026988;28;20044;-66
2022/11/03 05:39:49;;;;;;;4.47;2.40;;;;;;;5.48;nan;100541.69;5020983;28;20069;-66
2022/11/03 05:42:43;;;;;;;5.28;2.50;;;;;;;5.44;nan;100548.16;5026502;28;20030;-66
2022/11/03 05:45:21;;;;;;;4.40;1.92;;;;;;;5.41;nan;100545.75;5015262;28;20061;-66
2022/11/03 05:47:49;;;;;;;3.40;2.13;;;;;;;5.36;nan;100547.88;5024026;28;20057;-65
2022/11/03 05:50:21;;;;;;;3.53;1.95;;;;;;;5.35;nan;100554.91;5027480;28;20556;-66
2022/11/03 05:52:49;;;;;;;5.47;2.70;;;;;;;5.37;nan;100546.94;5027563;28;20072;-66
2022/11/03 05:55:24;;;;;;;7.25;3.00;;;;;;;5.38;nan;100540.75;5028233;28;20037;-66
2022/11/03 05:57:50;;;;;;;5.45;2.60;;;;;;;5.39;nan;100539.81;5018187;28;20045;-66
2022/11/03 06:00:36;;;;;;;5.65;3.17;;;;;;;5.44;nan;100542.91;5025806;28;20043;-66
2022/11/03 06:03:02;;;;;;;10.38;4.07;;;;;;;5.48;nan;100521.56;5027471;28;20033;-65
2022/11/03 06:05:30;;;;;;;7.65;3.78;;;;;;;5.54;nan;100515.00;5026477;28;20124;-65
2022/11/03 06:07:59;;;;;;;6.43;3.35;;;;;;;5.58;nan;100513.81;5026357;28;20346;-65
2022/11/03 06:10:25;;;;;;;6.25;3.05;;;;;;;5.60;nan;100508.44;5026564;28;20037;-66
2022/11/03 06:12:54;;;;;;;5.82;2.97;;;;;;;5.61;nan;100494.38;5027032;28;20478;-65
2022/11/03 06:15:27;;;;;;;8.50;3.10;;;;;;;5.59;nan;100491.88;5020586;28;20072;-65
2022/11/03 06:17:53;;;;;;;8.60;3.63;;;;;;;5.60;nan;100484.81;5027724;28;20034;-65
2022/11/03 06:20:21;;;;;;;6.10;3.08;;;;;;;5.62;nan;100468.00;5027261;28;20087;-66
2022/11/03 06:22:47;;;;;;;5.97;3.25;;;;;;;5.89;nan;100477.28;5027772;28;20045;-65
2022/11/03 06:25:31;;;;;;;6.32;3.00;;;;;;;6.26;nan;100467.28;5034037;28;20075;-66
2022/11/03 06:28:13;;;;;;;9.45;3.42;;;;;;;6.57;nan;100473.47;5025669;28;20037;-66
2022/11/03 06:30:41;;;;;;;7.97;3.40;;;;;;;6.77;nan;100477.09;5025976;28;20048;-66
2022/11/03 06:33:32;;;;;;;6.78;3.03;;;;;;;6.92;nan;100485.47;5026957;28;20041;-66
2022/11/03 06:36:00;;;;;;;5.90;3.40;;;;;;;7.07;nan;100493.03;5025748;28;20442;-66
2022/11/03 06:38:30;;;;;;;7.38;2.75;;;;;;;7.14;nan;100488.91;5024929;28;20320;-66
2022/11/03 06:40:57;;;;;;;5.07;2.60;;;;;;;7.12;nan;100489.03;5025608;28;20486;-66
2022/11/03 06:43:27;;;;;;;3.75;2.20;;;;;;;7.13;nan;100489.88;5025650;28;20609;-66
2022/11/03 06:45:58;;;;;;;3.70;2.50;;;;;;;7.17;nan;100483.38;5025241;28;20041;-66
2022/11/03 06:48:33;;;;;;;5.95;2.70;;;;;;;7.22;nan;100478.56;5027802;28;20494;-66
2022/11/03 06:50:59;;;;;;;6.85;2.80;;;;;;;7.26;nan;100479.13;5025737;28;20033;-66
2022/11/03 06:53:32;;;;;;;4.63;2.80;;;;;;;7.27;nan;100472.91;5032063;28;20113;-66
2022/11/03 06:55:57;;;;;;;5.07;2.75;;;;;;;7.28;nan;100471.94;5027403;28;20433;-66
2022/11/03 06:58:33;;;;;;;6.55;2.70;;;;;;;7.31;nan;100474.31;5028287;28;20124;-66
2022/11/03 07:01:02;;;;;;;7.35;2.83;;;;;;;7.31;nan;100472.50;5018990;28;20037;-66
2022/11/03 07:03:36;;;;;;;4.80;2.00;;;;;;;7.33;nan;100475.84;5025665;28;20064;-66
2022/11/03 07:06:14;;;;;;;4.57;2.47;;;;;;;7.37;nan;100461.47;5025487;28;20041;-66
2022/11/03 07:08:45;;;;;;;5.65;2.30;;;;;;;7.44;nan;100462.59;5023640;28;20120;-66
2022/11/03 07:11:17;;;;;;;5.88;2.60;;;;;;;7.53;nan;100460.13;5025373;28;20037;-66
2022/11/03 07:13:44;;;;;;;5.13;2.40;;;;;;;7.59;nan;100468.31;5024710;28;20056;-66
2022/11/03 07:16:17;;;;;;;7.13;3.20;;;;;;;7.63;nan;100466.28;5024269;28;20041;-66
2022/11/03 07:18:44;;;;;;;5.97;3.20;;;;;;;7.66;nan;100455.47;5022973;28;20065;-66
2022/11/03 07:21:31;;;;;;;6.30;2.80;;;;;;;7.71;nan;100445.38;5026291;28;20041;-66
2022/11/03 07:23:59;;;;;;;6.20;2.60;;;;;;;7.72;nan;100441.75;5028329;28;20178;-65
2022/11/03 07:26:25;;;;;;;6.10;2.70;;;;;;;7.75;nan;100433.59;5033723;28;20256;-66
2022/11/03 07:28:51;;;;;;;4.35;2.83;;;;;;;7.77;nan;100433.44;5027669;28;20070;-66
2022/11/03 07:31:22;;;;;;;5.43;2.58;;;;;;;7.81;nan;100440.94;5027445;28;20498;-66
2022/11/03 07:33:48;;;;;;;;;;;;;;;7.86;nan;100436.13;5023449;28;20033;-66
2022/11/03 07:36:19;;;;;;;4.70;2.45;;;;;;;7.92;nan;100426.00;5023892;28;19917;-66
2022/11/03 07:38:48;;;;;;;6.03;2.78;;;;;;;8.01;nan;100435.72;5025508;28;20505;-66
2022/11/03 07:41:26;;;;;;;7.07;3.20;;;;;;;8.08;nan;100424.50;5026543;28;20048;-66
2022/11/03 07:43:56;;;;;;;5.80;3.10;;;;;;;8.15;nan;100416.88;5028040;28;20520;-66
2022/11/03 07:46:23;;;;;;;6.45;3.03;;;;;;;8.24;nan;100410.75;5037997;28;20393;-66
2022/11/03 07:49:01;;;;;;;4.88;3.05;;;;;;;8.34;nan;100409.91;5027658;28;20495;-66
2022/11/03 07:51:36;;;;;;;9.00;4.35;;;;;;;8.38;nan;100411.31;5026322;28;20116;-66
2022/11/03 07:54:07;;;;;;;8.70;3.75;;;;;;;8.42;nan;100392.47;5039551;28;20033;-66
2022/11/03 07:56:37;;;;;;;6.32;3.38;;;;;;;8.48;nan;100396.34;5027786;28;20139;-66
2022/11/03 07:59:10;;;;;;;8.03;3.67;;;;;;;8.55;nan;100394.81;5027630;28;20133;-66
2022/11/03 08:01:39;;;;;;;5.70;3.30;;;;;;;8.70;nan;100395.22;5027058;28;20296;-66
2022/11/03 08:04:11;;;;;;;6.30;3.20;;;;;;;8.81;nan;100384.47;5027881;28;20040;-66
2022/11/03 08:06:37;;;;;;;5.55;2.83;;;;;;;8.93;nan;100362.22;5025983;28;20041;-66
2022/11/03 08:09:03;;;;;;;8.18;3.55;;;;;;;9.07;nan;100360.91;5027381;28;20362;-66
2022/11/03 08:11:28;;;;;;;8.85;3.88;;;;;;;9.12;nan;100358.66;5026991;28;20053;-66
2022/11/03 08:13:53;;;;;;;6.53;3.38;;;;;;;9.29;nan;100354.41;5024725;28;20127;-66
2022/11/03 08:16:19;;;;;;;6.43;3.22;;;;;;;9.47;nan;100358.91;5027008;28;20037;-66
2022/11/03 08:18:45;;;;;;;7.07;4.00;;;;;;;9.59;nan;100352.44;5028589;28;20037;-66
2022/11/03 08:21:11;;;;;;;8.43;3.85;;;;;;;9.73;nan;100345.81;5029901;28;20029;-66
2022/11/03 08:23:36;;;;;;;7.78;3.42;;;;;;;9.87;nan;100345.28;5037899;28;20033;-66
2022/11/03 08:26:02;;;;;;;5.85;2.90;;;;;;;10.03;nan;100335.81;5026644;28;20392;-68
2022/11/03 08:28:27;;;;;;;7.22;3.97;;;;;;;10.07;nan;100323.97;5020844;28;20041;-66
2022/11/03 08:30:53;;;;;;;8.98;3.95;;;;;;;10.04;nan;100325.09;5020869;28;20040;-66
2022/11/03 08:33:18;;;;;;;8.20;4.47;;;;;;;10.00;nan;100324.56;5025011;28;20049;-66
2022/11/03 08:35:43;;;;;;;8.43;4.22;;;;;;;9.96;nan;100325.88;5027533;28;20132;-66
2022/11/03 08:38:09;;;;;;;9.43;4.45;;;;;;;9.89;nan;100329.25;5027654;28;20049;-66
2022/11/03 08:40:34;;;;;;;12.77;4.93;;;;;;;9.85;nan;100333.19;5030145;28;20033;-66
2022/11/03 08:43:01;;;;;;;10.38;5.00;;;;;;;9.80;nan;100333.66;5028893;28;20037;-66
2022/11/03 08:45:29;;;;;;;9.82;4.40;;;;;;;9.82;nan;100334.34;5037709;28;20502;-66
2022/11/03 08:47:55;;;;;;;7.60;3.97;;;;;;;9.91;nan;100336.03;5028614;28;20063;-66
2022/11/03 08:50:20;;;;;;;7.28;4.40;;;;;;;10.05;nan;100333.84;5024351;28;20172;-66
2022/11/03 08:52:46;;;;;;;7.00;3.60;;;;;;;10.17;nan;100338.72;5027984;28;20033;-66
2022/11/03 08:55:11;;;;;;;5.70;3.30;;;;;;;10.33;nan;100332.78;5027100;28;20068;-66
2022/11/03 08:57:36;;;;;;;7.83;3.67;;;;;;;10.45;nan;100332.53;5026426;28;20033;-66
2022/11/03 09:00:04;;;;;;;7.45;3.00;;;;;;;10.60;nan;100344.16;5027703;28;20689;-66
2022/11/03 09:02:30;;;;;;;8.52;3.80;;;;;;;10.78;nan;100337.00;5028400;28;20041;-66
2022/11/03 09:04:55;;;;;;;7.18;3.47;;;;;;;10.93;nan;100328.47;5028363;28;20052;-66
2022/11/03 09:07:20;;;;;;;7.60;3.47;;;;;;;11.13;nan;100326.38;5031341;28;20091;-66
2022/11/03 09:09:45;;;;;;;7.88;3.63;;;;;;;11.36;nan;100321.34;5029391;28;20128;-66
2022/11/03 09:12:11;;;;;;;6.05;3.08;;;;;;;11.59;nan;100321.56;5030272;28;20033;-67
2022/11/03 09:14:36;;;;;;;5.90;3.03;;;;;;;11.85;nan;100318.75;5029809;28;20042;-66
2022/11/03 09:17:01;;;;;;;6.20;3.13;;;;;;;12.05;nan;100314.81;5030795;28;20297;-66
2022/11/03 09:19:27;;;;;;;7.50;3.90;;;;;;;12.17;nan;100307.34;5030440;28;20041;-66
2022/11/03 09:21:52;;;;;;;8.67;3.60;;;;;;;12.30;nan;100322.75;5030249;28;20692;-66
2022/11/03 09:24:17;;;;;;;6.53;3.40;;;;;;;12.53;nan;100310.41;5044077;28;20286;-67
2022/11/03 09:26:43;;;;;;;5.47;2.70;;;;;;;12.81;nan;100293.25;5030959;28;20570;-66
2022/11/03 09:29:08;;;;;;;4.50;2.65;;;;;;;13.09;nan;100288.34;5030266;28;20304;-66
2022/11/03 09:31:33;;;;;;;3.95;2.17;;;;;;;13.33;nan;100296.19;5030773;28;20040;-66
2022/11/03 09:33:58;;;;;;;3.78;2.15;;;;;;;13.53;nan;100293.06;5029867;28;20521;-66
2022/11/03 09:36:24;;;;;;;4.97;2.35;;;;;;;13.64;nan;100283.88;5030045;28;20079;-67
2022/11/03 09:38:49;;;;;;;4.43;2.37;;;;;;;13.70;nan;100276.00;5030622;28;20037;-67
2022/11/03 09:41:18;;;;;;;3.35;1.98;;;;;;;13.82;nan;100279.06;5029972;28;20609;-67
2022/11/03 09:43:44;;;;;;;3.40;1.90;;;;;;;13.95;nan;100271.31;5030250;28;20124;-67
2022/11/03 09:46:11;;;;;;;4.40;2.10;;;;;;;13.96;nan;100266.81;5048962;28;20043;-67
2022/11/03 09:48:37;;;;;;;4.32;2.33;;;;;;;14.04;nan;100269.41;5050168;28;20086;-67
2022/11/03 09:51:02;;;;;;;4.40;2.35;;;;;;;14.07;nan;100254.94;5049846;28;20032;-67
2022/11/03 09:53:29;;;;;;;3.38;2.20;;;;;;;14.11;nan;100240.25;5049231;28;20036;-67
2022/11/03 09:55:54;;;;;;;4.68;2.30;;;;;;;14.19;nan;100237.50;5050067;28;20094;-67
2022/11/03 09:58:20;;;;;;;4.85;2.80;;;;;;;14.24;nan;100243.94;5048832;28;20037;-67
2022/11/03 10:00:45;;;;;;;5.93;2.95;;;;;;;14.26;nan;100243.75;5048780;28;20113;-66
2022/11/03 10:03:12;;;;;;;4.60;2.10;;;;;;;14.38;nan;100238.81;5049369;28;20072;-67
2022/11/03 10:05:39;;;;;;;5.60;2.15;;;;;;;14.43;nan;100234.56;5049731;28;20068;-67
2022/11/03 10:08:21;;;;;;;4.40;2.58;;;;;;;14.45;nan;100213.13;5050009;28;20041;-67
2022/11/03 10:10:46;;;;;;;4.45;2.42;;;;;;;14.50;nan;100200.09;5049664;28;20033;-67
2022/11/03 10:13:25;;;;;;;3.95;2.08;;;;;;;14.63;nan;100208.28;5047402;28;20472;-67
2022/11/03 10:15:51;;;;;;;6.30;3.10;;;;;;;14.67;nan;100205.22;5050033;28;20036;-67
2022/11/03 10:18:17;;;;;;;4.45;2.47;;;;;;;14.71;nan;100214.50;5049733;28;20055;-67
2022/11/03 10:20:43;;;;;;;5.95;2.80;;;;;;;14.85;nan;100192.34;5049182;28;20025;-67
2022/11/03 10:23:08;;;;;;;6.15;3.03;;;;;;;14.82;nan;100193.53;5040785;28;20049;-67
2022/11/03 10:25:35;;;;;;;7.45;3.55;;;;;;;14.84;nan;100188.03;5041388;28;20068;-67
2022/11/03 10:28:14;;;;;;;6.22;2.92;;;;;;;14.99;nan;100178.16;5049303;28;20032;-67
2022/11/03 10:30:46;;;;;;;4.40;2.55;;;;;;;15.22;nan;100179.81;5048697;28;20033;-67
2022/11/03 10:33:27;;;;;;;4.00;2.38;;;;;;;15.40;nan;100182.03;5041027;28;20079;-67
2022/11/03 10:35:54;;;;;;;5.03;2.55;;;;;;;15.57;nan;100171.94;5029307;28;20040;-67
2022/11/03 10:38:27;;;;;;;5.72;2.75;;;;;;;15.95;nan;100167.09;5028558;28;20310;-67
2022/11/03 10:40:54;;;;;;;7.63;3.50;;;;;;;16.49;nan;100168.16;5029316;28;20390;-66
2022/11/03 10:43:19;;;;;;;7.30;3.15;;;;;;;16.75;nan;100162.09;5028813;28;20064;-67
2022/11/03 10:45:45;;;;;;;5.80;2.80;;;;;;;16.89;nan;100158.47;5045867;28;20059;-67
2022/11/03 10:48:10;;;;;;;4.05;2.50;;;;;;;16.90;nan;100144.13;5049479;28;20036;-67
2022/11/03 10:50:38;;;;;;;6.55;3.13;;;;;;;16.86;nan;100142.03;5047327;28;20033;-67
2022/11/03 10:53:04;;;;;;;8.70;3.50;;;;;;;16.73;nan;100132.09;5047967;28;20032;-67
2022/11/03 10:55:29;;;;;;;6.03;2.80;;;;;;;16.62;nan;100120.19;5048891;28;20390;-67
2022/11/03 10:57:56;;;;;;;7.10;2.83;;;;;;;16.47;nan;100116.84;5047533;28;20120;-67
2022/11/03 11:00:23;;;;;;;6.22;2.60;;;;;;;16.21;nan;100107.72;5029079;28;20029;-67
2022/11/03 11:02:50;;;;;;;7.22;3.17;;;;;;;16.04;nan;100109.06;5028314;28;20045;-67
2022/11/03 11:05:20;;;;;;;8.23;2.40;;;;;;;15.85;nan;100094.59;5028510;28;20194;-67
2022/11/03 11:07:50;;;;;;;4.32;2.00;;;;;;;15.75;nan;100088.81;5028174;28;20091;-67
2022/11/03 11:10:18;;;;;;;5.22;2.10;;;;;;;15.67;nan;100087.94;5028359;28;20520;-67
2022/11/03 11:13:08;;;;;;;3.90;2.22;;;;;;;15.56;nan;100084.97;5027951;28;20417;-67
2022/11/03 11:15:45;;;;;;;8.05;2.42;;;;;;;15.46;nan;100080.00;5026942;28;20421;-67
2022/11/03 11:18:30;;;;;;;5.47;2.47;;;;;;;15.42;nan;100076.06;5028100;28;20128;-67
2022/11/03 11:21:00;;;;;;;5.00;2.47;;;;;;;15.44;nan;100084.69;5028318;28;20029;-67
2022/11/03 11:23:25;;;;;;;5.05;2.40;;;;;;;15.41;nan;100072.59;5036843;28;20032;-67
2022/11/03 11:26:09;;;;;;;5.80;1.90;;;;;;;15.44;nan;100071.38;5033997;28;20125;-66
2022/11/03 11:28:38;;;;;;;6.13;2.22;;;;;;;15.31;nan;100061.47;5018241;28;20446;-65
2022/11/03 11:31:25;;;;;;;5.18;2.13;;;;;;;15.18;nan;100053.34;5027700;28;20064;-65
2022/11/03 11:34:17;;;;;;;4.78;2.20;;;;;;;15.12;nan;100041.66;5027035;28;20056;-65
2022/11/03 11:37:05;;;;;;;5.15;2.60;;;;;;;15.05;nan;100054.09;5027835;28;20065;-65
2022/11/03 11:39:30;;;;;;;4.80;2.17;;;;;;;14.99;nan;100058.34;5027804;28;20393;-65
2022/11/03 11:42:13;;;;;;;6.22;2.00;;;;;;;15.02;nan;100060.63;5026139;28;20046;-65
2022/11/03 11:44:38;;;;;;;4.28;1.98;;;;;;;15.00;nan;100062.66;5027159;28;20072;-65
2022/11/03 11:47:42;;;;;;;5.43;2.25;;;;;;;14.94;nan;100060.75;5026749;28;20053;-65
2022/11/03 11:50:10;;;;;;;5.43;2.50;;;;;;;14.90;nan;100059.50;5024397;28;20046;-65
2022/11/03 11:52:44;;;;;;;6.70;2.30;;;;;;;14.82;nan;100064.94;5029414;28;20033;-65
2022/11/03 11:55:33;;;;;;;6.53;2.40;;;;;;;14.77;nan;100072.66;5017289;28;20041;-65
2022/11/03 11:58:00;;;;;;;4.10;2.20;;;;;;;14.74;nan;100057.09;5027523;28;20536;-65
2022/11/03 12:00:30;;;;;;;5.85;2.55;;;;;;;14.67;nan;100051.69;5038514;28;20045;-65
2022/11/03 12:02:57;;;;;;;7.43;2.35;;;;;;;14.56;nan;100045.06;5027044;28;20029;-65
2022/11/03 12:05:24;;;;;;;5.40;2.55;;;;;;;14.44;nan;100028.75;5027262;28;20053;-65
2022/11/03 12:07:50;;;;;;;7.82;2.90;;;;;;;14.36;nan;100023.53;5027012;28;20038;-65
2022/11/03 12:10:21;;;;;;;6.78;2.83;;;;;;;14.31;nan;100014.47;5029143;28;20132;-65
2022/11/03 12:12:47;;;;;;;3.95;2.30;;;;;;;14.25;nan;100013.38;5030977;28;20033;-65
2022/11/03 12:15:49;;;;;;;7.72;2.97;;;;;;;14.11;nan;100007.13;5036496;28;20064;-65
2022/11/03 12:18:38;;;;;;;4.13;2.40;;;;;;;14.01;nan;99991.47;5028185;28;20041;-65
2022/11/03 12:21:42;;;;;;;4.82;2.55;;;;;;;14.01;nan;99980.84;5030652;28;20061;-65